sensor_id;sensor_type;location;lat;lon;timestamp;P1;durP1;ratioP1;P2;durP2;ratioP2
12900;SDS011;6518;50.930;5.344;2024-03-23T00:55:07;9.97;;;4.20;;
12900;SDS011;6518;50.930;5.344;2024-03-23T00:57:34;14.00;;;4.60;;
12900;SDS011;6518;50.930;5.344;2024-03-23T01:00:00;12.33;;;4.20;;
12900;SDS011;6518;50.930;5.344;2024-03-23T01:02:27;14.53;;;4.43;;
12900;SDS011;6518;50.930;5.344;2024-03-23T01:04:53;14.70;;;4.87;;
12900;SDS011;6518;50.930;5.344;2024-03-23T01:07:20;11.43;;;4.50;;
12900;SDS011;6518;50.930;5.344;2024-03-23T01:09:46;9.50;;;3.73;;
12900;SDS011;6518;50.930;5.344;2024-03-23T01:12:14;11.43;;;3.97;;
12900;SDS011;6518;50.930;5.344;2024-03-23T01:14:42;10.93;;;3.90;;
12900;SDS011;6518;50.930;5.344;2024-03-23T01:17:09;16.53;;;4.03;;
12900;SDS011;6518;50.930;5.344;2024-03-23T01:19:35;9.77;;;3.03;;
12900;SDS011;6518;50.930;5.344;2024-03-23T01:22:04;9.10;;;3.63;;
12900;SDS011;6518;50.930;5.344;2024-03-23T01:24:30;9.23;;;3.43;;
12900;SDS011;6518;50.930;5.344;2024-03-23T01:26:57;5.87;;;2.50;;
12900;SDS011;6518;50.930;5.344;2024-03-23T01:29:25;12.13;;;3.13;;
12900;SDS011;6518;50.930;5.344;2024-03-23T01:31:52;12.60;;;3.77;;
12900;SDS011;6518;50.930;5.344;2024-03-23T01:34:17;10.00;;;3.07;;
12900;SDS011;6518;50.930;5.344;2024-03-23T01:36:45;12.87;;;3.53;;
12900;SDS011;6518;50.930;5.344;2024-03-23T01:39:12;11.30;;;3.07;;
12900;SDS011;6518;50.930;5.344;2024-03-23T01:41:39;8.97;;;3.07;;
12900;SDS011;6518;50.930;5.344;2024-03-23T01:44:07;11.90;;;3.60;;
12900;SDS011;6518;50.930;5.344;2024-03-23T01:46:36;12.40;;;3.57;;
12900;SDS011;6518;50.930;5.344;2024-03-23T01:49:04;13.27;;;3.33;;
12900;SDS011;6518;50.930;5.344;2024-03-23T01:51:32;11.63;;;3.80;;
12900;SDS011;6518;50.930;5.344;2024-03-23T01:54:01;10.30;;;3.23;;
12900;SDS011;6518;50.930;5.344;2024-03-23T01:56:28;14.03;;;3.70;;
12900;SDS011;6518;50.930;5.344;2024-03-23T01:58:58;16.17;;;3.60;;
12900;SDS011;6518;50.930;5.344;2024-03-23T02:01:24;11.47;;;3.67;;
12900;SDS011;6518;50.930;5.344;2024-03-23T02:03:55;12.97;;;3.40;;
12900;SDS011;6518;50.930;5.344;2024-03-23T02:06:22;11.30;;;4.17;;
12900;SDS011;6518;50.930;5.344;2024-03-23T02:08:51;12.33;;;3.57;;
12900;SDS011;6518;50.930;5.344;2024-03-23T02:11:18;14.47;;;3.70;;
12900;SDS011;6518;50.930;5.344;2024-03-23T02:13:45;12.40;;;3.57;;
12900;SDS011;6518;50.930;5.344;2024-03-23T02:16:11;13.33;;;4.57;;
12900;SDS011;6518;50.930;5.344;2024-03-23T02:18:38;10.53;;;3.70;;
12900;SDS011;6518;50.930;5.344;2024-03-23T02:21:06;11.73;;;3.93;;
12900;SDS011;6518;50.930;5.344;2024-03-23T02:23:35;13.70;;;3.53;;
12900;SDS011;6518;50.930;5.344;2024-03-23T02:26:01;14.73;;;4.37;;
12900;SDS011;6518;50.930;5.344;2024-03-23T02:28:28;11.13;;;3.03;;
12900;SDS011;6518;50.930;5.344;2024-03-23T02:30:54;12.30;;;3.50;;
12900;SDS011;6518;50.930;5.344;2024-03-23T02:33:21;9.03;;;3.10;;
12900;SDS011;6518;50.930;5.344;2024-03-23T02:35:48;11.73;;;4.13;;
12900;SDS011;6518;50.930;5.344;2024-03-23T02:38:15;7.93;;;3.50;;
12900;SDS011;6518;50.930;5.344;2024-03-23T02:40:43;9.83;;;3.43;;
12900;SDS011;6518;50.930;5.344;2024-03-23T02:43:10;14.00;;;4.17;;
12900;SDS011;6518;50.930;5.344;2024-03-23T02:45:35;11.47;;;3.93;;
12900;SDS011;6518;50.930;5.344;2024-03-23T02:48:03;15.33;;;3.93;;
12900;SDS011;6518;50.930;5.344;2024-03-23T02:50:29;12.60;;;3.80;;
12900;SDS011;6518;50.930;5.344;2024-03-23T02:52:58;11.60;;;4.40;;
12900;SDS011;6518;50.930;5.344;2024-03-23T02:55:24;10.03;;;3.53;;
12900;SDS011;6518;50.930;5.344;2024-03-23T02:57:53;11.90;;;3.97;;
12900;SDS011;6518;50.930;5.344;2024-03-23T03:00:19;13.57;;;3.87;;
12900;SDS011;6518;50.930;5.344;2024-03-23T03:02:47;13.10;;;3.90;;
12900;SDS011;6518;50.930;5.344;2024-03-23T03:05:13;10.50;;;3.97;;
12900;SDS011;6518;50.930;5.344;2024-03-23T03:07:44;13.70;;;4.37;;
12900;SDS011;6518;50.930;5.344;2024-03-23T03:10:11;10.83;;;3.60;;
12900;SDS011;6518;50.930;5.344;2024-03-23T03:12:38;11.70;;;4.00;;
12900;SDS011;6518;50.930;5.344;2024-03-23T03:15:06;11.17;;;3.90;;
12900;SDS011;6518;50.930;5.344;2024-03-23T03:17:34;14.63;;;4.07;;
12900;SDS011;6518;50.930;5.344;2024-03-23T03:20:00;8.53;;;3.53;;
12900;SDS011;6518;50.930;5.344;2024-03-23T03:22:29;11.37;;;4.33;;
12900;SDS011;6518;50.930;5.344;2024-03-23T03:24:55;13.63;;;4.30;;
12900;SDS011;6518;50.930;5.344;2024-03-23T03:27:22;11.50;;;4.23;;
12900;SDS011;6518;50.930;5.344;2024-03-23T03:29:48;11.00;;;3.50;;
12900;SDS011;6518;50.930;5.344;2024-03-23T03:32:16;12.37;;;3.90;;
12900;SDS011;6518;50.930;5.344;2024-03-23T03:34:43;13.10;;;3.53;;
12900;SDS011;6518;50.930;5.344;2024-03-23T03:37:10;14.63;;;4.27;;
12900;SDS011;6518;50.930;5.344;2024-03-23T03:39:36;10.63;;;3.20;;
12900;SDS011;6518;50.930;5.344;2024-03-23T03:42:03;10.93;;;3.67;;
12900;SDS011;6518;50.930;5.344;2024-03-23T03:44:31;10.57;;;4.03;;
12900;SDS011;6518;50.930;5.344;2024-03-23T03:46:59;10.17;;;3.40;;
12900;SDS011;6518;50.930;5.344;2024-03-23T03:49:26;11.03;;;3.43;;
12900;SDS011;6518;50.930;5.344;2024-03-23T03:51:53;12.10;;;3.27;;
12900;SDS011;6518;50.930;5.344;2024-03-23T03:54:19;10.73;;;3.40;;
12900;SDS011;6518;50.930;5.344;2024-03-23T03:56:46;12.27;;;3.53;;
12900;SDS011;6518;50.930;5.344;2024-03-23T03:59:12;10.10;;;3.23;;
12900;SDS011;6518;50.930;5.344;2024-03-23T04:01:39;9.60;;;3.50;;
12900;SDS011;6518;50.930;5.344;2024-03-23T04:04:05;10.43;;;3.70;;
12900;SDS011;6518;50.930;5.344;2024-03-23T04:06:34;9.87;;;3.20;;
12900;SDS011;6518;50.930;5.344;2024-03-23T04:09:00;13.93;;;3.97;;
12900;SDS011;6518;50.930;5.344;2024-03-23T04:11:27;10.63;;;3.60;;
12900;SDS011;6518;50.930;5.344;2024-03-23T04:13:53;8.50;;;2.97;;
12900;SDS011;6518;50.930;5.344;2024-03-23T04:16:26;10.00;;;3.53;;
12900;SDS011;6518;50.930;5.344;2024-03-23T04:18:52;14.07;;;4.03;;
12900;SDS011;6518;50.930;5.344;2024-03-23T04:21:20;12.17;;;4.77;;
12900;SDS011;6518;50.930;5.344;2024-03-23T04:23:48;9.63;;;3.77;;
12900;SDS011;6518;50.930;5.344;2024-03-23T04:26:15;12.40;;;4.10;;
12900;SDS011;6518;50.930;5.344;2024-03-23T04:28:41;12.73;;;4.10;;
12900;SDS011;6518;50.930;5.344;2024-03-23T04:31:09;8.47;;;3.83;;
12900;SDS011;6518;50.930;5.344;2024-03-23T04:33:36;13.53;;;4.73;;
12900;SDS011;6518;50.930;5.344;2024-03-23T04:36:04;13.93;;;4.53;;
12900;SDS011;6518;50.930;5.344;2024-03-23T04:38:32;11.53;;;4.53;;
12900;SDS011;6518;50.930;5.344;2024-03-23T04:41:02;14.07;;;4.57;;
12900;SDS011;6518;50.930;5.344;2024-03-23T04:43:29;13.03;;;4.57;;
12900;SDS011;6518;50.930;5.344;2024-03-23T04:45:56;13.80;;;5.03;;
12900;SDS011;6518;50.930;5.344;2024-03-23T04:48:23;13.63;;;5.23;;
12900;SDS011;6518;50.930;5.344;2024-03-23T04:50:54;13.13;;;5.00;;
12900;SDS011;6518;50.930;5.344;2024-03-23T04:53:22;11.50;;;5.07;;
12900;SDS011;6518;50.930;5.344;2024-03-23T04:55:53;12.67;;;5.43;;
12900;SDS011;6518;50.930;5.344;2024-03-23T04:58:22;12.50;;;5.50;;
12900;SDS011;6518;50.930;5.344;2024-03-23T05:00:52;12.10;;;5.60;;
12900;SDS011;6518;50.930;5.344;2024-03-23T05:03:20;14.50;;;5.30;;
12900;SDS011;6518;50.930;5.344;2024-03-23T05:05:46;12.80;;;5.73;;
12900;SDS011;6518;50.930;5.344;2024-03-23T05:08:13;13.60;;;6.70;;
12900;SDS011;6518;50.930;5.344;2024-03-23T05:10:39;15.07;;;5.87;;
12900;SDS011;6518;50.930;5.344;2024-03-23T05:13:07;14.43;;;6.00;;
12900;SDS011;6518;50.930;5.344;2024-03-23T05:15:34;13.50;;;6.10;;
12900;SDS011;6518;50.930;5.344;2024-03-23T05:18:01;13.30;;;6.30;;
12900;SDS011;6518;50.930;5.344;2024-03-23T05:20:30;13.90;;;7.03;;
12900;SDS011;6518;50.930;5.344;2024-03-23T05:22:56;14.73;;;6.73;;
12900;SDS011;6518;50.930;5.344;2024-03-23T05:25:23;15.67;;;7.20;;
12900;SDS011;6518;50.930;5.344;2024-03-23T05:27:49;15.93;;;7.30;;
12900;SDS011;6518;50.930;5.344;2024-03-23T05:30:16;14.77;;;6.60;;
12900;SDS011;6518;50.930;5.344;2024-03-23T05:32:43;13.10;;;7.67;;
12900;SDS011;6518;50.930;5.344;2024-03-23T05:35:10;16.40;;;7.33;;
12900;SDS011;6518;50.930;5.344;2024-03-23T05:37:37;17.20;;;8.03;;
12900;SDS011;6518;50.930;5.344;2024-03-23T05:40:04;15.17;;;8.17;;
12900;SDS011;6518;50.930;5.344;2024-03-23T05:42:30;15.37;;;7.67;;
12900;SDS011;6518;50.930;5.344;2024-03-23T05:44:57;17.97;;;7.90;;
12900;SDS011;6518;50.930;5.344;2024-03-23T05:47:23;16.60;;;7.93;;
12900;SDS011;6518;50.930;5.344;2024-03-23T05:49:51;15.93;;;7.27;;
12900;SDS011;6518;50.930;5.344;2024-03-23T05:52:17;17.40;;;7.27;;
12900;SDS011;6518;50.930;5.344;2024-03-23T05:54:46;14.63;;;7.73;;
12900;SDS011;6518;50.930;5.344;2024-03-23T05:57:12;16.20;;;7.50;;
12900;SDS011;6518;50.930;5.344;2024-03-23T05:59:39;19.30;;;8.30;;
12900;SDS011;6518;50.930;5.344;2024-03-23T06:02:04;17.00;;;7.67;;
12900;SDS011;6518;50.930;5.344;2024-03-23T06:04:32;16.57;;;7.27;;
12900;SDS011;6518;50.930;5.344;2024-03-23T06:06:59;16.63;;;7.20;;
12900;SDS011;6518;50.930;5.344;2024-03-23T06:09:26;13.90;;;6.47;;
12900;SDS011;6518;50.930;5.344;2024-03-23T06:11:56;14.37;;;6.80;;
12900;SDS011;6518;50.930;5.344;2024-03-23T06:14:22;17.67;;;7.00;;
12900;SDS011;6518;50.930;5.344;2024-03-23T06:16:49;15.07;;;6.77;;
12900;SDS011;6518;50.930;5.344;2024-03-23T06:19:15;14.90;;;6.83;;
12900;SDS011;6518;50.930;5.344;2024-03-23T06:21:43;16.20;;;6.50;;
12900;SDS011;6518;50.930;5.344;2024-03-23T06:24:10;16.03;;;6.40;;
12900;SDS011;6518;50.930;5.344;2024-03-23T06:26:39;17.57;;;6.30;;
12900;SDS011;6518;50.930;5.344;2024-03-23T06:29:05;19.23;;;6.27;;
12900;SDS011;6518;50.930;5.344;2024-03-23T06:31:32;16.93;;;7.20;;
12900;SDS011;6518;50.930;5.344;2024-03-23T06:33:58;15.57;;;7.27;;
12900;SDS011;6518;50.930;5.344;2024-03-23T06:36:26;15.43;;;7.13;;
12900;SDS011;6518;50.930;5.344;2024-03-23T06:38:52;20.27;;;7.30;;
12900;SDS011;6518;50.930;5.344;2024-03-23T06:41:21;20.27;;;7.17;;
12900;SDS011;6518;50.930;5.344;2024-03-23T06:43:46;17.53;;;7.27;;
12900;SDS011;6518;50.930;5.344;2024-03-23T06:46:13;16.67;;;7.77;;
12900;SDS011;6518;50.930;5.344;2024-03-23T06:48:39;17.37;;;7.23;;
12900;SDS011;6518;50.930;5.344;2024-03-23T06:51:06;16.50;;;7.13;;
12900;SDS011;6518;50.930;5.344;2024-03-23T06:53:32;15.60;;;6.77;;
12900;SDS011;6518;50.930;5.344;2024-03-23T06:55:59;18.47;;;6.97;;
12900;SDS011;6518;50.930;5.344;2024-03-23T06:58:36;15.27;;;6.50;;
12900;SDS011;6518;50.930;5.344;2024-03-23T07:01:03;16.93;;;6.20;;
12900;SDS011;6518;50.930;5.344;2024-03-23T07:03:29;16.20;;;7.43;;
12900;SDS011;6518;50.930;5.344;2024-03-23T07:05:57;14.93;;;6.93;;
12900;SDS011;6518;50.930;5.344;2024-03-23T07:08:24;16.97;;;7.10;;
12900;SDS011;6518;50.930;5.344;2024-03-23T07:10:52;16.87;;;6.63;;
12900;SDS011;6518;50.930;5.344;2024-03-23T07:13:18;13.20;;;6.30;;
12900;SDS011;6518;50.930;5.344;2024-03-23T07:15:52;13.27;;;5.93;;
12900;SDS011;6518;50.930;5.344;2024-03-23T07:18:18;14.20;;;6.07;;
12900;SDS011;6518;50.930;5.344;2024-03-23T07:20:51;11.93;;;5.87;;
12900;SDS011;6518;50.930;5.344;2024-03-23T07:23:18;13.90;;;6.20;;
12900;SDS011;6518;50.930;5.344;2024-03-23T07:25:45;9.70;;;5.50;;
12900;SDS011;6518;50.930;5.344;2024-03-23T07:28:20;12.17;;;5.83;;
12900;SDS011;6518;50.930;5.344;2024-03-23T07:30:48;15.77;;;5.73;;
12900;SDS011;6518;50.930;5.344;2024-03-23T07:33:15;19.57;;;6.80;;
12900;SDS011;6518;50.930;5.344;2024-03-23T07:35:42;11.20;;;5.60;;
12900;SDS011;6518;50.930;5.344;2024-03-23T07:38:08;12.60;;;5.13;;
12900;SDS011;6518;50.930;5.344;2024-03-23T07:40:34;14.40;;;5.20;;
12900;SDS011;6518;50.930;5.344;2024-03-23T07:43:00;9.87;;;5.07;;
12900;SDS011;6518;50.930;5.344;2024-03-23T07:45:27;11.97;;;4.70;;
12900;SDS011;6518;50.930;5.344;2024-03-23T07:47:53;13.53;;;4.67;;
12900;SDS011;6518;50.930;5.344;2024-03-23T07:50:21;13.20;;;4.70;;
12900;SDS011;6518;50.930;5.344;2024-03-23T07:52:48;13.07;;;4.47;;
12900;SDS011;6518;50.930;5.344;2024-03-23T07:55:14;11.33;;;3.90;;
12900;SDS011;6518;50.930;5.344;2024-03-23T07:57:41;7.83;;;3.57;;
12900;SDS011;6518;50.930;5.344;2024-03-23T08:00:07;13.93;;;4.13;;
12900;SDS011;6518;50.930;5.344;2024-03-23T08:02:35;10.37;;;4.20;;
12900;SDS011;6518;50.930;5.344;2024-03-23T08:05:00;13.03;;;3.87;;
12900;SDS011;6518;50.930;5.344;2024-03-23T08:07:29;11.03;;;3.90;;
12900;SDS011;6518;50.930;5.344;2024-03-23T08:09:55;11.60;;;3.63;;
12900;SDS011;6518;50.930;5.344;2024-03-23T08:12:22;12.07;;;3.10;;
12900;SDS011;6518;50.930;5.344;2024-03-23T08:14:48;12.17;;;3.90;;
12900;SDS011;6518;50.930;5.344;2024-03-23T08:17:15;8.40;;;2.63;;
12900;SDS011;6518;50.930;5.344;2024-03-23T08:19:41;11.73;;;3.67;;
12900;SDS011;6518;50.930;5.344;2024-03-23T08:22:07;8.80;;;3.03;;
12900;SDS011;6518;50.930;5.344;2024-03-23T08:24:35;9.43;;;2.70;;
12900;SDS011;6518;50.930;5.344;2024-03-23T08:27:02;12.67;;;2.80;;
12900;SDS011;6518;50.930;5.344;2024-03-23T08:29:30;10.63;;;2.87;;
12900;SDS011;6518;50.930;5.344;2024-03-23T08:31:56;15.63;;;3.30;;
12900;SDS011;6518;50.930;5.344;2024-03-23T08:34:22;10.03;;;3.17;;
12900;SDS011;6518;50.930;5.344;2024-03-23T08:36:49;14.60;;;3.60;;
12900;SDS011;6518;50.930;5.344;2024-03-23T08:39:16;13.97;;;3.83;;
12900;SDS011;6518;50.930;5.344;2024-03-23T08:41:44;8.67;;;2.57;;
12900;SDS011;6518;50.930;5.344;2024-03-23T08:44:11;8.03;;;2.67;;
12900;SDS011;6518;50.930;5.344;2024-03-23T08:46:38;11.80;;;3.67;;
12900;SDS011;6518;50.930;5.344;2024-03-23T08:49:04;9.50;;;3.50;;
12900;SDS011;6518;50.930;5.344;2024-03-23T08:51:31;8.93;;;3.13;;
12900;SDS011;6518;50.930;5.344;2024-03-23T08:53:57;8.77;;;2.80;;
12900;SDS011;6518;50.930;5.344;2024-03-23T08:56:24;10.30;;;2.70;;
12900;SDS011;6518;50.930;5.344;2024-03-23T08:58:52;6.27;;;2.17;;
12900;SDS011;6518;50.930;5.344;2024-03-23T09:01:20;8.33;;;2.63;;
12900;SDS011;6518;50.930;5.344;2024-03-23T09:03:46;7.80;;;2.50;;
12900;SDS011;6518;50.930;5.344;2024-03-23T09:06:13;8.67;;;2.60;;
12900;SDS011;6518;50.930;5.344;2024-03-23T09:08:40;9.97;;;2.50;;
12900;SDS011;6518;50.930;5.344;2024-03-23T09:11:08;8.37;;;2.33;;
12900;SDS011;6518;50.930;5.344;2024-03-23T09:13:35;9.70;;;2.67;;
12900;SDS011;6518;50.930;5.344;2024-03-23T09:16:05;6.27;;;1.80;;
12900;SDS011;6518;50.930;5.344;2024-03-23T09:18:31;8.83;;;2.87;;
12900;SDS011;6518;50.930;5.344;2024-03-23T09:21:00;8.47;;;2.40;;
12900;SDS011;6518;50.930;5.344;2024-03-23T09:23:26;9.63;;;2.27;;
12900;SDS011;6518;50.930;5.344;2024-03-23T09:25:53;11.07;;;2.70;;
12900;SDS011;6518;50.930;5.344;2024-03-23T09:28:19;7.80;;;1.80;;
12900;SDS011;6518;50.930;5.344;2024-03-23T09:30:46;10.30;;;2.77;;
12900;SDS011;6518;50.930;5.344;2024-03-23T09:33:13;9.30;;;3.07;;
12900;SDS011;6518;50.930;5.344;2024-03-23T09:35:40;13.50;;;3.37;;
12900;SDS011;6518;50.930;5.344;2024-03-23T09:38:09;10.10;;;2.70;;
12900;SDS011;6518;50.930;5.344;2024-03-23T09:40:40;9.57;;;2.83;;
12900;SDS011;6518;50.930;5.344;2024-03-23T09:43:07;11.03;;;2.80;;
12900;SDS011;6518;50.930;5.344;2024-03-23T09:45:36;11.73;;;3.10;;
12900;SDS011;6518;50.930;5.344;2024-03-23T09:48:06;7.93;;;2.50;;
12900;SDS011;6518;50.930;5.344;2024-03-23T09:50:36;8.37;;;2.83;;
12900;SDS011;6518;50.930;5.344;2024-03-23T09:53:04;7.93;;;2.47;;
12900;SDS011;6518;50.930;5.344;2024-03-23T09:55:32;7.67;;;2.30;;
12900;SDS011;6518;50.930;5.344;2024-03-23T09:58:00;16.17;;;2.40;;
12900;SDS011;6518;50.930;5.344;2024-03-23T10:00:26;10.37;;;2.20;;
12900;SDS011;6518;50.930;5.344;2024-03-23T10:02:54;9.10;;;2.53;;
12900;SDS011;6518;50.930;5.344;2024-03-23T10:05:21;5.67;;;2.27;;
12900;SDS011;6518;50.930;5.344;2024-03-23T10:07:50;9.90;;;2.50;;
12900;SDS011;6518;50.930;5.344;2024-03-23T10:10:16;9.37;;;2.60;;
12900;SDS011;6518;50.930;5.344;2024-03-23T10:12:44;9.53;;;2.30;;
12900;SDS011;6518;50.930;5.344;2024-03-23T10:15:15;7.10;;;2.40;;
12900;SDS011;6518;50.930;5.344;2024-03-23T10:17:45;9.00;;;2.20;;
12900;SDS011;6518;50.930;5.344;2024-03-23T10:20:12;9.20;;;2.17;;
12900;SDS011;6518;50.930;5.344;2024-03-23T10:22:39;5.20;;;2.00;;
12900;SDS011;6518;50.930;5.344;2024-03-23T10:25:10;7.23;;;2.10;;
12900;SDS011;6518;50.930;5.344;2024-03-23T10:27:40;7.40;;;2.50;;
12900;SDS011;6518;50.930;5.344;2024-03-23T10:30:09;5.93;;;2.13;;
12900;SDS011;6518;50.930;5.344;2024-03-23T10:32:37;6.47;;;1.83;;
12900;SDS011;6518;50.930;5.344;2024-03-23T10:37:47;8.37;;;2.10;;
12900;SDS011;6518;50.930;5.344;2024-03-23T10:40:16;5.90;;;1.90;;
12900;SDS011;6518;50.930;5.344;2024-03-23T10:42:43;6.67;;;2.10;;
12900;SDS011;6518;50.930;5.344;2024-03-23T10:45:10;8.63;;;2.17;;
12900;SDS011;6518;50.930;5.344;2024-03-23T10:47:37;8.73;;;1.73;;
12900;SDS011;6518;50.930;5.344;2024-03-23T10:50:03;4.93;;;1.83;;
12900;SDS011;6518;50.930;5.344;2024-03-23T10:52:31;6.57;;;2.17;;
12900;SDS011;6518;50.930;5.344;2024-03-23T10:54:58;3.63;;;1.30;;
12900;SDS011;6518;50.930;5.344;2024-03-23T10:57:33;2.10;;;0.80;;
12900;SDS011;6518;50.930;5.344;2024-03-23T11:00:06;1.97;;;0.97;;
12900;SDS011;6518;50.930;5.344;2024-03-23T11:02:35;6.33;;;1.60;;
12900;SDS011;6518;50.930;5.344;2024-03-23T11:05:01;5.43;;;2.03;;
12900;SDS011;6518;50.930;5.344;2024-03-23T11:07:49;7.27;;;2.10;;
12900;SDS011;6518;50.930;5.344;2024-03-23T11:10:24;7.00;;;2.37;;
12900;SDS011;6518;50.930;5.344;2024-03-23T11:12:53;6.50;;;1.63;;
12900;SDS011;6518;50.930;5.344;2024-03-23T11:15:19;3.00;;;1.47;;
12900;SDS011;6518;50.930;5.344;2024-03-23T11:18:02;3.70;;;1.40;;
12900;SDS011;6518;50.930;5.344;2024-03-23T11:20:33;3.97;;;1.57;;
12900;SDS011;6518;50.930;5.344;2024-03-23T11:23:00;4.27;;;1.90;;
12900;SDS011;6518;50.930;5.344;2024-03-23T11:25:27;6.10;;;1.80;;
12900;SDS011;6518;50.930;5.344;2024-03-23T11:27:57;4.97;;;1.90;;
12900;SDS011;6518;50.930;5.344;2024-03-23T11:30:34;7.60;;;1.50;;
12900;SDS011;6518;50.930;5.344;2024-03-23T11:33:03;3.17;;;1.37;;
12900;SDS011;6518;50.930;5.344;2024-03-23T11:35:30;7.17;;;2.10;;
12900;SDS011;6518;50.930;5.344;2024-03-23T11:38:02;3.43;;;1.57;;
12900;SDS011;6518;50.930;5.344;2024-03-23T11:40:31;4.97;;;1.80;;
12900;SDS011;6518;50.930;5.344;2024-03-23T11:43:00;5.63;;;1.77;;
12900;SDS011;6518;50.930;5.344;2024-03-23T11:45:28;4.20;;;1.43;;
12900;SDS011;6518;50.930;5.344;2024-03-23T11:48:01;5.30;;;2.10;;
12900;SDS011;6518;50.930;5.344;2024-03-23T11:50:29;5.60;;;1.80;;
12900;SDS011;6518;50.930;5.344;2024-03-23T11:53:06;5.57;;;1.93;;
12900;SDS011;6518;50.930;5.344;2024-03-23T11:55:42;4.27;;;1.90;;
12900;SDS011;6518;50.930;5.344;2024-03-23T11:58:12;7.57;;;2.43;;
12900;SDS011;6518;50.930;5.344;2024-03-23T12:00:38;5.03;;;1.63;;
12900;SDS011;6518;50.930;5.344;2024-03-23T12:03:05;3.23;;;1.70;;
12900;SDS011;6518;50.930;5.344;2024-03-23T12:05:32;3.37;;;1.20;;
12900;SDS011;6518;50.930;5.344;2024-03-23T12:08:15;3.77;;;1.00;;
12900;SDS011;6518;50.930;5.344;2024-03-23T12:10:46;2.40;;;1.10;;
12900;SDS011;6518;50.930;5.344;2024-03-23T12:13:16;2.93;;;1.20;;
12900;SDS011;6518;50.930;5.344;2024-03-23T12:15:44;4.10;;;1.43;;
12900;SDS011;6518;50.930;5.344;2024-03-23T12:18:11;2.00;;;1.07;;
12900;SDS011;6518;50.930;5.344;2024-03-23T12:20:38;3.20;;;1.37;;
12900;SDS011;6518;50.930;5.344;2024-03-23T12:23:05;2.10;;;1.10;;
12900;SDS011;6518;50.930;5.344;2024-03-23T12:25:32;3.33;;;1.50;;
12900;SDS011;6518;50.930;5.344;2024-03-23T12:27:59;4.30;;;1.43;;
12900;SDS011;6518;50.930;5.344;2024-03-23T12:30:26;4.10;;;1.70;;
12900;SDS011;6518;50.930;5.344;2024-03-23T12:32:53;3.90;;;1.23;;
12900;SDS011;6518;50.930;5.344;2024-03-23T12:35:19;3.83;;;1.33;;
12900;SDS011;6518;50.930;5.344;2024-03-23T12:37:46;4.67;;;2.00;;
12900;SDS011;6518;50.930;5.344;2024-03-23T12:40:12;4.50;;;1.57;;
12900;SDS011;6518;50.930;5.344;2024-03-23T12:42:40;4.17;;;1.93;;
12900;SDS011;6518;50.930;5.344;2024-03-23T12:45:08;7.07;;;2.10;;
12900;SDS011;6518;50.930;5.344;2024-03-23T12:47:36;5.40;;;2.07;;
12900;SDS011;6518;50.930;5.344;2024-03-23T12:50:02;6.23;;;1.90;;
12900;SDS011;6518;50.930;5.344;2024-03-23T12:52:31;5.60;;;2.23;;
12900;SDS011;6518;50.930;5.344;2024-03-23T12:54:57;6.17;;;2.27;;
12900;SDS011;6518;50.930;5.344;2024-03-23T12:57:24;4.83;;;1.57;;
12900;SDS011;6518;50.930;5.344;2024-03-23T12:59:50;6.20;;;2.50;;
12900;SDS011;6518;50.930;5.344;2024-03-23T13:02:18;5.30;;;1.90;;
12900;SDS011;6518;50.930;5.344;2024-03-23T13:04:46;3.90;;;1.20;;
12900;SDS011;6518;50.930;5.344;2024-03-23T13:07:15;2.57;;;1.13;;
12900;SDS011;6518;50.930;5.344;2024-03-23T13:09:41;4.60;;;1.60;;
12900;SDS011;6518;50.930;5.344;2024-03-23T13:12:08;6.47;;;1.80;;
12900;SDS011;6518;50.930;5.344;2024-03-23T13:14:35;3.57;;;1.77;;
12900;SDS011;6518;50.930;5.344;2024-03-23T13:17:02;2.93;;;1.50;;
12900;SDS011;6518;50.930;5.344;2024-03-23T13:19:29;7.97;;;1.83;;
12900;SDS011;6518;50.930;5.344;2024-03-23T13:21:58;4.57;;;1.60;;
12900;SDS011;6518;50.930;5.344;2024-03-23T13:24:25;3.97;;;1.67;;
12900;SDS011;6518;50.930;5.344;2024-03-23T13:26:52;4.10;;;1.77;;
12900;SDS011;6518;50.930;5.344;2024-03-23T13:29:19;6.40;;;1.77;;
12900;SDS011;6518;50.930;5.344;2024-03-23T13:31:47;5.57;;;1.60;;
12900;SDS011;6518;50.930;5.344;2024-03-23T13:34:14;5.27;;;1.80;;
12900;SDS011;6518;50.930;5.344;2024-03-23T13:36:42;8.00;;;1.60;;
12900;SDS011;6518;50.930;5.344;2024-03-23T13:39:09;5.77;;;1.67;;
12900;SDS011;6518;50.930;5.344;2024-03-23T13:41:37;3.80;;;1.87;;
12900;SDS011;6518;50.930;5.344;2024-03-23T13:44:04;6.60;;;1.77;;
12900;SDS011;6518;50.930;5.344;2024-03-23T13:46:31;2.60;;;1.50;;
12900;SDS011;6518;50.930;5.344;2024-03-23T13:48:57;3.10;;;1.20;;
12900;SDS011;6518;50.930;5.344;2024-03-23T13:51:24;7.20;;;1.70;;
12900;SDS011;6518;50.930;5.344;2024-03-23T13:53:52;6.80;;;1.93;;
12900;SDS011;6518;50.930;5.344;2024-03-23T13:56:20;3.57;;;1.50;;
12900;SDS011;6518;50.930;5.344;2024-03-23T13:58:46;6.13;;;1.40;;
12900;SDS011;6518;50.930;5.344;2024-03-23T14:01:15;3.90;;;1.00;;
12900;SDS011;6518;50.930;5.344;2024-03-23T14:03:41;2.73;;;1.20;;
12900;SDS011;6518;50.930;5.344;2024-03-23T14:06:09;1.83;;;1.00;;
12900;SDS011;6518;50.930;5.344;2024-03-23T14:08:35;3.93;;;1.33;;
12900;SDS011;6518;50.930;5.344;2024-03-23T14:11:04;4.40;;;1.30;;
12900;SDS011;6518;50.930;5.344;2024-03-23T14:13:32;3.90;;;1.33;;
12900;SDS011;6518;50.930;5.344;2024-03-23T14:15:59;2.83;;;1.07;;
12900;SDS011;6518;50.930;5.344;2024-03-23T14:18:25;3.93;;;1.00;;
12900;SDS011;6518;50.930;5.344;2024-03-23T14:20:52;7.33;;;1.30;;
12900;SDS011;6518;50.930;5.344;2024-03-23T14:23:23;4.90;;;1.03;;
12900;SDS011;6518;50.930;5.344;2024-03-23T14:25:52;5.57;;;1.47;;
12900;SDS011;6518;50.930;5.344;2024-03-23T14:28:19;4.50;;;1.17;;
12900;SDS011;6518;50.930;5.344;2024-03-23T14:30:49;3.83;;;1.10;;
12900;SDS011;6518;50.930;5.344;2024-03-23T14:33:15;4.70;;;1.00;;
12900;SDS011;6518;50.930;5.344;2024-03-23T14:35:43;4.60;;;1.13;;
12900;SDS011;6518;50.930;5.344;2024-03-23T14:38:10;1.87;;;0.90;;
12900;SDS011;6518;50.930;5.344;2024-03-23T14:40:37;6.33;;;1.23;;
12900;SDS011;6518;50.930;5.344;2024-03-23T14:43:04;6.77;;;1.40;;
12900;SDS011;6518;50.930;5.344;2024-03-23T14:45:31;4.93;;;1.47;;
12900;SDS011;6518;50.930;5.344;2024-03-23T14:47:59;3.90;;;1.30;;
12900;SDS011;6518;50.930;5.344;2024-03-23T14:50:26;3.33;;;1.20;;
12900;SDS011;6518;50.930;5.344;2024-03-23T14:52:52;3.53;;;1.73;;
12900;SDS011;6518;50.930;5.344;2024-03-23T14:55:19;4.30;;;2.27;;
12900;SDS011;6518;50.930;5.344;2024-03-23T14:57:45;5.40;;;2.13;;
12900;SDS011;6518;50.930;5.344;2024-03-23T15:00:12;5.67;;;1.87;;
12900;SDS011;6518;50.930;5.344;2024-03-23T15:02:39;5.07;;;2.10;;
12900;SDS011;6518;50.930;5.344;2024-03-23T15:05:08;8.13;;;2.50;;
12900;SDS011;6518;50.930;5.344;2024-03-23T15:07:35;8.00;;;2.57;;
12900;SDS011;6518;50.930;5.344;2024-03-23T15:10:03;5.77;;;2.30;;
12900;SDS011;6518;50.930;5.344;2024-03-23T15:12:30;5.47;;;2.43;;
12900;SDS011;6518;50.930;5.344;2024-03-23T15:14:58;6.70;;;2.00;;
12900;SDS011;6518;50.930;5.344;2024-03-23T15:17:25;4.87;;;1.77;;
12900;SDS011;6518;50.930;5.344;2024-03-23T15:19:52;4.43;;;1.70;;
12900;SDS011;6518;50.930;5.344;2024-03-23T15:22:20;3.63;;;1.37;;
12900;SDS011;6518;50.930;5.344;2024-03-23T15:24:48;3.07;;;1.30;;
12900;SDS011;6518;50.930;5.344;2024-03-23T15:27:14;4.50;;;1.00;;
12900;SDS011;6518;50.930;5.344;2024-03-23T15:29:42;3.03;;;1.10;;
12900;SDS011;6518;50.930;5.344;2024-03-23T15:32:10;2.13;;;0.90;;
12900;SDS011;6518;50.930;5.344;2024-03-23T15:34:39;5.50;;;1.40;;
12900;SDS011;6518;50.930;5.344;2024-03-23T15:37:05;3.67;;;1.40;;
12900;SDS011;6518;50.930;5.344;2024-03-23T15:39:33;2.83;;;1.17;;
12900;SDS011;6518;50.930;5.344;2024-03-23T15:41:59;4.83;;;1.23;;
12900;SDS011;6518;50.930;5.344;2024-03-23T15:44:26;3.57;;;1.40;;
12900;SDS011;6518;50.930;5.344;2024-03-23T15:46:52;4.00;;;1.30;;
12900;SDS011;6518;50.930;5.344;2024-03-23T15:49:19;4.90;;;1.30;;
12900;SDS011;6518;50.930;5.344;2024-03-23T15:51:45;2.47;;;1.33;;
12900;SDS011;6518;50.930;5.344;2024-03-23T15:54:12;4.53;;;1.20;;